sensor_id;sensor_type;location;lat;lon;timestamp;P1;durP1;ratioP1;P2;durP2;ratioP2
1999;SDS011;1001;48.87406500;9.59633600;2022-07-23T00:00:03;5.97;;;5.37;;
1999;SDS011;1001;48.87406500;9.59633600;2022-07-23T00:02:31;8.17;;;5.60;;
1999;SDS011;1001;48.87406500;9.59633600;2022-07-23T00:04:58;8.17;;;6.10;;
1999;SDS011;1001;48.87406500;9.59633600;2022-07-23T00:07:25;6.40;;;5.17;;
1999;SDS011;1001;48.87406500;9.59633600;2022-07-23T00:09:52;5.80;;;5.30;;
1999;SDS011;1001;48.87406500;9.59633600;2022-07-23T00:12:18;6.37;;;5.77;;
1999;SDS011;1001;48.87406500;9.59633600;2022-07-23T00:14:47;6.03;;;5.13;;
1999;SDS011;1001;48.87406500;9.59633600;2022-07-23T00:17:14;6.10;;;5.50;;
1999;SDS011;1001;48.87406500;9.59633600;2022-07-23T00:19:42;7.07;;;5.70;;
1999;SDS011;1001;48.87406500;9.59633600;2022-07-23T00:22:09;5.80;;;5.30;;
1999;SDS011;1001;48.87406500;9.59633600;2022-07-23T00:24:36;5.83;;;5.23;;
1999;SDS011;1001;48.87406500;9.59633600;2022-07-23T00:27:02;5.93;;;5.30;;
1999;SDS011;1001;48.87406500;9.59633600;2022-07-23T00:29:29;5.80;;;5.30;;
1999;SDS011;1001;48.87406500;9.59633600;2022-07-23T00:31:56;5.90;;;4.43;;
1999;SDS011;1001;48.87406500;9.59633600;2022-07-23T00:34:22;7.53;;;5.27;;
1999;SDS011;1001;48.87406500;9.59633600;2022-07-23T00:36:50;6.03;;;5.50;;
1999;SDS011;1001;48.87406500;9.59633600;2022-07-23T00:39:18;5.60;;;5.10;;
1999;SDS011;1001;48.87406500;9.59633600;2022-07-23T00:41:46;5.80;;;5.30;;
1999;SDS011;1001;48.87406500;9.59633600;2022-07-23T00:44:16;5.33;;;4.83;;
1999;SDS011;1001;48.87406500;9.59633600;2022-07-23T00:46:45;5.90;;;4.70;;
1999;SDS011;1001;48.87406500;9.59633600;2022-07-23T00:49:13;5.07;;;4.53;;
1999;SDS011;1001;48.87406500;9.59633600;2022-07-23T00:51:39;4.43;;;4.03;;
1999;SDS011;1001;48.87406500;9.59633600;2022-07-23T00:54:09;4.83;;;4.37;;
1999;SDS011;1001;48.87406500;9.59633600;2022-07-23T00:56:37;4.83;;;4.43;;
1999;SDS011;1001;48.87406500;9.59633600;2022-07-23T00:59:03;4.17;;;3.77;;
1999;SDS011;1001;48.87406500;9.59633600;2022-07-23T01:01:32;4.00;;;3.60;;
1999;SDS011;1001;48.87406500;9.59633600;2022-07-23T01:03:58;5.47;;;4.67;;
1999;SDS011;1001;48.87406500;9.59633600;2022-07-23T01:06:25;6.00;;;4.23;;
1999;SDS011;1001;48.87406500;9.59633600;2022-07-23T01:08:51;5.20;;;4.80;;
1999;SDS011;1001;48.87406500;9.59633600;2022-07-23T01:11:21;5.33;;;4.90;;
1999;SDS011;1001;48.87406500;9.59633600;2022-07-23T01:13:49;5.73;;;4.53;;
1999;SDS011;1001;48.87406500;9.59633600;2022-07-23T01:16:16;4.77;;;4.27;;
1999;SDS011;1001;48.87406500;9.59633600;2022-07-23T01:18:43;10.93;;;5.10;;
1999;SDS011;1001;48.87406500;9.59633600;2022-07-23T01:21:10;5.03;;;4.60;;
1999;SDS011;1001;48.87406500;9.59633600;2022-07-23T01:23:40;4.37;;;3.97;;
1999;SDS011;1001;48.87406500;9.59633600;2022-07-23T01:26:07;4.60;;;4.20;;
1999;SDS011;1001;48.87406500;9.59633600;2022-07-23T01:28:34;4.30;;;4.00;;
1999;SDS011;1001;48.87406500;9.59633600;2022-07-23T01:31:01;4.90;;;4.43;;
1999;SDS011;1001;48.87406500;9.59633600;2022-07-23T01:33:27;5.17;;;4.67;;
1999;SDS011;1001;48.87406500;9.59633600;2022-07-23T01:35:54;5.37;;;4.10;;
1999;SDS011;1001;48.87406500;9.59633600;2022-07-23T01:38:21;4.17;;;3.87;;
1999;SDS011;1001;48.87406500;9.59633600;2022-07-23T01:40:49;5.87;;;5.27;;
1999;SDS011;1001;48.87406500;9.59633600;2022-07-23T01:43:15;5.57;;;4.60;;
1999;SDS011;1001;48.87406500;9.59633600;2022-07-23T01:45:42;4.10;;;3.80;;
1999;SDS011;1001;48.87406500;9.59633600;2022-07-23T01:48:09;4.60;;;3.53;;
1999;SDS011;1001;48.87406500;9.59633600;2022-07-23T01:50:36;5.30;;;3.80;;
1999;SDS011;1001;48.87406500;9.59633600;2022-07-23T01:53:03;4.50;;;4.10;;
1999;SDS011;1001;48.87406500;9.59633600;2022-07-23T01:55:29;3.60;;;3.30;;
1999;SDS011;1001;48.87406500;9.59633600;2022-07-23T01:57:57;4.27;;;3.87;;
1999;SDS011;1001;48.87406500;9.59633600;2022-07-23T02:00:24;4.50;;;4.10;;
1999;SDS011;1001;48.87406500;9.59633600;2022-07-23T02:02:51;3.90;;;3.53;;
1999;SDS011;1001;48.87406500;9.59633600;2022-07-23T02:05:17;4.67;;;4.00;;
1999;SDS011;1001;48.87406500;9.59633600;2022-07-23T02:07:44;4.50;;;4.10;;
1999;SDS011;1001;48.87406500;9.59633600;2022-07-23T02:10:10;3.40;;;3.10;;
1999;SDS011;1001;48.87406500;9.59633600;2022-07-23T02:12:37;4.00;;;3.60;;
1999;SDS011;1001;48.87406500;9.59633600;2022-07-23T02:15:08;4.40;;;4.00;;
1999;SDS011;1001;48.87406500;9.59633600;2022-07-23T02:17:34;6.57;;;4.30;;
1999;SDS011;1001;48.87406500;9.59633600;2022-07-23T02:20:01;4.03;;;3.70;;
1999;SDS011;1001;48.87406500;9.59633600;2022-07-23T02:22:28;4.60;;;3.70;;
1999;SDS011;1001;48.87406500;9.59633600;2022-07-23T02:24:55;3.93;;;3.63;;
1999;SDS011;1001;48.87406500;9.59633600;2022-07-23T02:27:22;4.43;;;4.13;;
1999;SDS011;1001;48.87406500;9.59633600;2022-07-23T02:29:48;4.87;;;4.10;;
1999;SDS011;1001;48.87406500;9.59633600;2022-07-23T02:32:19;4.33;;;4.03;;
1999;SDS011;1001;48.87406500;9.59633600;2022-07-23T02:34:46;4.07;;;3.77;;
1999;SDS011;1001;48.87406500;9.59633600;2022-07-23T02:37:12;4.53;;;4.13;;
1999;SDS011;1001;48.87406500;9.59633600;2022-07-23T02:39:39;4.40;;;4.00;;
1999;SDS011;1001;48.87406500;9.59633600;2022-07-23T02:42:06;4.53;;;4.10;;
1999;SDS011;1001;48.87406500;9.59633600;2022-07-23T02:44:33;5.17;;;4.47;;
1999;SDS011;1001;48.87406500;9.59633600;2022-07-23T02:47:00;4.80;;;4.30;;
1999;SDS011;1001;48.87406500;9.59633600;2022-07-23T02:49:29;4.70;;;4.30;;
1999;SDS011;1001;48.87406500;9.59633600;2022-07-23T02:51:55;4.60;;;4.23;;
1999;SDS011;1001;48.87406500;9.59633600;2022-07-23T02:54:25;4.70;;;4.30;;
1999;SDS011;1001;48.87406500;9.59633600;2022-07-23T02:56:51;4.13;;;3.83;;
1999;SDS011;1001;48.87406500;9.59633600;2022-07-23T02:59:19;5.53;;;4.33;;
1999;SDS011;1001;48.87406500;9.59633600;2022-07-23T03:01:45;5.07;;;4.57;;
1999;SDS011;1001;48.87406500;9.59633600;2022-07-23T03:04:12;5.10;;;4.60;;
1999;SDS011;1001;48.87406500;9.59633600;2022-07-23T03:06:40;4.70;;;4.30;;
1999;SDS011;1001;48.87406500;9.59633600;2022-07-23T03:09:07;6.13;;;4.80;;
1999;SDS011;1001;48.87406500;9.59633600;2022-07-23T03:11:34;4.80;;;4.10;;
1999;SDS011;1001;48.87406500;9.59633600;2022-07-23T03:14:00;5.10;;;4.50;;
1999;SDS011;1001;48.87406500;9.59633600;2022-07-23T03:16:27;4.90;;;4.40;;
1999;SDS011;1001;48.87406500;9.59633600;2022-07-23T03:18:54;7.50;;;4.80;;
1999;SDS011;1001;48.87406500;9.59633600;2022-07-23T03:21:20;5.13;;;4.63;;
1999;SDS011;1001;48.87406500;9.59633600;2022-07-23T03:23:48;5.60;;;5.10;;
1999;SDS011;1001;48.87406500;9.59633600;2022-07-23T03:26:15;5.17;;;4.70;;
1999;SDS011;1001;48.87406500;9.59633600;2022-07-23T03:28:42;5.03;;;4.57;;
1999;SDS011;1001;48.87406500;9.59633600;2022-07-23T03:31:08;4.97;;;4.47;;
1999;SDS011;1001;48.87406500;9.59633600;2022-07-23T03:33:35;5.87;;;5.20;;
1999;SDS011;1001;48.87406500;9.59633600;2022-07-23T03:36:02;5.87;;;4.53;;
1999;SDS011;1001;48.87406500;9.59633600;2022-07-23T03:38:29;6.00;;;5.07;;
1999;SDS011;1001;48.87406500;9.59633600;2022-07-23T03:40:57;6.13;;;5.20;;
1999;SDS011;1001;48.87406500;9.59633600;2022-07-23T03:43:23;4.53;;;4.13;;
1999;SDS011;1001;48.87406500;9.59633600;2022-07-23T03:45:50;7.07;;;5.47;;
1999;SDS011;1001;48.87406500;9.59633600;2022-07-23T03:48:17;5.47;;;4.97;;
1999;SDS011;1001;48.87406500;9.59633600;2022-07-23T03:50:44;5.93;;;5.33;;
1999;SDS011;1001;48.87406500;9.59633600;2022-07-23T03:53:11;5.67;;;4.60;;
1999;SDS011;1001;48.87406500;9.59633600;2022-07-23T03:55:37;5.87;;;4.70;;
1999;SDS011;1001;48.87406500;9.59633600;2022-07-23T03:58:06;6.17;;;5.40;;
1999;SDS011;1001;48.87406500;9.59633600;2022-07-23T04:00:32;5.93;;;5.40;;
1999;SDS011;1001;48.87406500;9.59633600;2022-07-23T04:02:59;6.60;;;6.00;;
1999;SDS011;1001;48.87406500;9.59633600;2022-07-23T04:05:26;5.47;;;4.87;;
1999;SDS011;1001;48.87406500;9.59633600;2022-07-23T04:07:54;6.00;;;5.37;;
1999;SDS011;1001;48.87406500;9.59633600;2022-07-23T04:10:21;6.40;;;5.90;;
1999;SDS011;1001;48.87406500;9.59633600;2022-07-23T04:12:47;6.30;;;5.70;;
1999;SDS011;1001;48.87406500;9.59633600;2022-07-23T04:15:15;5.77;;;5.27;;
1999;SDS011;1001;48.87406500;9.59633600;2022-07-23T04:17:43;5.70;;;5.20;;
1999;SDS011;1001;48.87406500;9.59633600;2022-07-23T04:20:11;6.30;;;5.70;;
1999;SDS011;1001;48.87406500;9.59633600;2022-07-23T04:22:38;7.53;;;6.50;;
1999;SDS011;1001;48.87406500;9.59633600;2022-07-23T04:25:04;6.67;;;6.10;;
1999;SDS011;1001;48.87406500;9.59633600;2022-07-23T04:27:32;5.53;;;4.93;;
1999;SDS011;1001;48.87406500;9.59633600;2022-07-23T04:29:59;5.57;;;4.97;;
1999;SDS011;1001;48.87406500;9.59633600;2022-07-23T04:32:27;6.03;;;5.53;;
1999;SDS011;1001;48.87406500;9.59633600;2022-07-23T04:34:53;4.60;;;4.20;;
1999;SDS011;1001;48.87406500;9.59633600;2022-07-23T04:37:20;5.77;;;5.27;;
1999;SDS011;1001;48.87406500;9.59633600;2022-07-23T04:39:47;5.57;;;5.07;;
1999;SDS011;1001;48.87406500;9.59633600;2022-07-23T04:42:13;5.00;;;4.57;;
1999;SDS011;1001;48.87406500;9.59633600;2022-07-23T04:44:40;6.23;;;5.63;;
1999;SDS011;1001;48.87406500;9.59633600;2022-07-23T04:47:07;5.53;;;5.03;;
1999;SDS011;1001;48.87406500;9.59633600;2022-07-23T04:49:35;5.30;;;4.80;;
1999;SDS011;1001;48.87406500;9.59633600;2022-07-23T04:52:02;7.50;;;5.17;;
1999;SDS011;1001;48.87406500;9.59633600;2022-07-23T04:54:29;8.03;;;5.63;;
1999;SDS011;1001;48.87406500;9.59633600;2022-07-23T04:56:55;4.87;;;4.47;;
1999;SDS011;1001;48.87406500;9.59633600;2022-07-23T04:59:22;5.97;;;5.43;;
1999;SDS011;1001;48.87406500;9.59633600;2022-07-23T05:01:49;5.77;;;5.27;;
1999;SDS011;1001;48.87406500;9.59633600;2022-07-23T05:04:15;6.00;;;5.40;;
1999;SDS011;1001;48.87406500;9.59633600;2022-07-23T05:06:43;5.13;;;4.73;;
1999;SDS011;1001;48.87406500;9.59633600;2022-07-23T05:09:10;5.53;;;5.03;;
1999;SDS011;1001;48.87406500;9.59633600;2022-07-23T05:11:36;5.73;;;5.13;;
1999;SDS011;1001;48.87406500;9.59633600;2022-07-23T05:14:03;6.53;;;4.67;;
1999;SDS011;1001;48.87406500;9.59633600;2022-07-23T05:16:30;6.07;;;5.47;;
1999;SDS011;1001;48.87406500;9.59633600;2022-07-23T05:18:57;4.80;;;4.30;;
1999;SDS011;1001;48.87406500;9.59633600;2022-07-23T05:21:23;5.93;;;5.20;;
1999;SDS011;1001;48.87406500;9.59633600;2022-07-23T05:23:51;5.63;;;5.03;;
1999;SDS011;1001;48.87406500;9.59633600;2022-07-23T05:26:18;5.50;;;5.10;;
1999;SDS011;1001;48.87406500;9.59633600;2022-07-23T05:28:44;7.37;;;5.27;;
1999;SDS011;1001;48.87406500;9.59633600;2022-07-23T05:31:11;7.50;;;5.20;;
1999;SDS011;1001;48.87406500;9.59633600;2022-07-23T05:33:38;5.97;;;5.47;;
1999;SDS011;1001;48.87406500;9.59633600;2022-07-23T05:36:05;6.07;;;5.47;;
1999;SDS011;1001;48.87406500;9.59633600;2022-07-23T05:38:32;6.40;;;5.80;;
1999;SDS011;1001;48.87406500;9.59633600;2022-07-23T05:41:00;6.60;;;5.43;;
1999;SDS011;1001;48.87406500;9.59633600;2022-07-23T05:43:27;5.93;;;5.43;;
1999;SDS011;1001;48.87406500;9.59633600;2022-07-23T05:45:54;6.67;;;5.20;;
1999;SDS011;1001;48.87406500;9.59633600;2022-07-23T05:48:21;6.20;;;5.30;;
1999;SDS011;1001;48.87406500;9.59633600;2022-07-23T05:50:47;5.83;;;5.33;;
1999;SDS011;1001;48.87406500;9.59633600;2022-07-23T05:53:14;6.73;;;5.63;;
1999;SDS011;1001;48.87406500;9.59633600;2022-07-23T05:55:41;8.80;;;5.60;;
1999;SDS011;1001;48.87406500;9.59633600;2022-07-23T05:58:11;6.43;;;5.83;;
1999;SDS011;1001;48.87406500;9.59633600;2022-07-23T06:00:37;5.80;;;5.30;;
1999;SDS011;1001;48.87406500;9.59633600;2022-07-23T06:03:04;6.40;;;5.80;;
1999;SDS011;1001;48.87406500;9.59633600;2022-07-23T06:05:31;5.63;;;5.13;;
1999;SDS011;1001;48.87406500;9.59633600;2022-07-23T06:07:57;6.50;;;6.00;;
1999;SDS011;1001;48.87406500;9.59633600;2022-07-23T06:10:24;7.60;;;6.90;;
1999;SDS011;1001;48.87406500;9.59633600;2022-07-23T06:12:51;6.57;;;6.00;;
1999;SDS011;1001;48.87406500;9.59633600;2022-07-23T06:15:19;6.53;;;5.93;;
1999;SDS011;1001;48.87406500;9.59633600;2022-07-23T06:17:46;7.03;;;6.40;;
1999;SDS011;1001;48.87406500;9.59633600;2022-07-23T06:20:12;6.27;;;5.67;;
1999;SDS011;1001;48.87406500;9.59633600;2022-07-23T06:22:39;6.67;;;6.07;;
1999;SDS011;1001;48.87406500;9.59633600;2022-07-23T06:25:06;6.37;;;5.73;;
1999;SDS011;1001;48.87406500;9.59633600;2022-07-23T06:27:33;8.40;;;6.20;;
1999;SDS011;1001;48.87406500;9.59633600;2022-07-23T06:30:00;6.63;;;5.93;;
1999;SDS011;1001;48.87406500;9.59633600;2022-07-23T06:32:28;6.27;;;5.70;;
1999;SDS011;1001;48.87406500;9.59633600;2022-07-23T06:34:55;5.90;;;5.40;;
1999;SDS011;1001;48.87406500;9.59633600;2022-07-23T06:37:22;6.03;;;5.43;;
1999;SDS011;1001;48.87406500;9.59633600;2022-07-23T06:39:49;6.30;;;5.73;;
1999;SDS011;1001;48.87406500;9.59633600;2022-07-23T06:42:15;6.27;;;5.67;;
1999;SDS011;1001;48.87406500;9.59633600;2022-07-23T06:44:42;6.30;;;5.80;;
1999;SDS011;1001;48.87406500;9.59633600;2022-07-23T06:47:09;7.23;;;6.10;;
1999;SDS011;1001;48.87406500;9.59633600;2022-07-23T06:49:37;5.60;;;5.17;;
1999;SDS011;1001;48.87406500;9.59633600;2022-07-23T06:52:06;6.30;;;5.70;;
1999;SDS011;1001;48.87406500;9.59633600;2022-07-23T06:54:32;6.10;;;5.60;;
1999;SDS011;1001;48.87406500;9.59633600;2022-07-23T06:56:59;6.30;;;5.67;;
1999;SDS011;1001;48.87406500;9.59633600;2022-07-23T06:59:26;6.17;;;5.57;;
1999;SDS011;1001;48.87406500;9.59633600;2022-07-23T07:01:53;5.77;;;5.27;;
1999;SDS011;1001;48.87406500;9.59633600;2022-07-23T07:04:20;6.83;;;5.40;;
1999;SDS011;1001;48.87406500;9.59633600;2022-07-23T07:06:48;6.60;;;6.00;;
1999;SDS011;1001;48.87406500;9.59633600;2022-07-23T07:09:16;6.97;;;6.00;;
1999;SDS011;1001;48.87406500;9.59633600;2022-07-23T07:11:43;6.57;;;5.97;;
1999;SDS011;1001;48.87406500;9.59633600;2022-07-23T07:14:10;6.20;;;5.40;;
1999;SDS011;1001;48.87406500;9.59633600;2022-07-23T07:16:36;6.40;;;5.77;;
1999;SDS011;1001;48.87406500;9.59633600;2022-07-23T07:19:03;7.00;;;6.37;;
1999;SDS011;1001;48.87406500;9.59633600;2022-07-23T07:21:30;6.43;;;5.90;;
1999;SDS011;1001;48.87406500;9.59633600;2022-07-23T07:23:58;7.40;;;6.63;;
1999;SDS011;1001;48.87406500;9.59633600;2022-07-23T07:26:25;6.70;;;6.20;;
1999;SDS011;1001;48.87406500;9.59633600;2022-07-23T07:28:52;7.20;;;6.60;;
1999;SDS011;1001;48.87406500;9.59633600;2022-07-23T07:31:19;8.57;;;7.07;;
1999;SDS011;1001;48.87406500;9.59633600;2022-07-23T07:33:45;7.10;;;6.40;;
1999;SDS011;1001;48.87406500;9.59633600;2022-07-23T07:36:13;7.97;;;7.20;;
1999;SDS011;1001;48.87406500;9.59633600;2022-07-23T07:38:39;8.07;;;7.37;;
1999;SDS011;1001;48.87406500;9.59633600;2022-07-23T07:41:08;9.77;;;7.70;;
1999;SDS011;1001;48.87406500;9.59633600;2022-07-23T07:43:35;11.33;;;9.83;;
1999;SDS011;1001;48.87406500;9.59633600;2022-07-23T07:46:02;9.13;;;8.23;;
1999;SDS011;1001;48.87406500;9.59633600;2022-07-23T07:48:29;8.37;;;7.40;;
1999;SDS011;1001;48.87406500;9.59633600;2022-07-23T07:50:56;9.57;;;8.70;;
1999;SDS011;1001;48.87406500;9.59633600;2022-07-23T07:53:22;8.50;;;7.70;;
1999;SDS011;1001;48.87406500;9.59633600;2022-07-23T07:55:49;9.53;;;8.10;;
1999;SDS011;1001;48.87406500;9.59633600;2022-07-23T07:58:17;8.77;;;7.90;;
1999;SDS011;1001;48.87406500;9.59633600;2022-07-23T08:00:44;9.67;;;8.53;;
1999;SDS011;1001;48.87406500;9.59633600;2022-07-23T08:03:13;8.03;;;7.07;;
1999;SDS011;1001;48.87406500;9.59633600;2022-07-23T08:05:40;8.80;;;7.90;;
1999;SDS011;1001;48.87406500;9.59633600;2022-07-23T08:08:06;7.50;;;6.53;;
1999;SDS011;1001;48.87406500;9.59633600;2022-07-23T08:10:34;8.33;;;7.53;;
1999;SDS011;1001;48.87406500;9.59633600;2022-07-23T08:13:01;7.90;;;7.20;;
1999;SDS011;1001;48.87406500;9.59633600;2022-07-23T08:15:30;8.10;;;7.37;;
1999;SDS011;1001;48.87406500;9.59633600;2022-07-23T08:17:57;7.87;;;7.17;;
1999;SDS011;1001;48.87406500;9.59633600;2022-07-23T08:20:25;10.43;;;7.70;;
1999;SDS011;1001;48.87406500;9.59633600;2022-07-23T08:22:53;7.70;;;7.10;;
1999;SDS011;1001;48.87406500;9.59633600;2022-07-23T08:25:22;8.27;;;7.53;;
1999;SDS011;1001;48.87406500;9.59633600;2022-07-23T08:27:50;8.50;;;7.63;;
1999;SDS011;1001;48.87406500;9.59633600;2022-07-23T08:30:18;8.30;;;7.50;;
1999;SDS011;1001;48.87406500;9.59633600;2022-07-23T08:32:54;8.07;;;6.47;;
1999;SDS011;1001;48.87406500;9.59633600;2022-07-23T08:35:23;8.73;;;7.83;;
1999;SDS011;1001;48.87406500;9.59633600;2022-07-23T08:37:51;8.13;;;7.33;;
1999;SDS011;1001;48.87406500;9.59633600;2022-07-23T08:40:18;9.33;;;8.27;;
1999;SDS011;1001;48.87406500;9.59633600;2022-07-23T08:42:47;8.00;;;7.30;;
1999;SDS011;1001;48.87406500;9.59633600;2022-07-23T08:45:18;9.73;;;8.47;;
1999;SDS011;1001;48.87406500;9.59633600;2022-07-23T08:47:48;8.17;;;7.37;;
1999;SDS011;1001;48.87406500;9.59633600;2022-07-23T08:50:17;8.90;;;8.10;;
1999;SDS011;1001;48.87406500;9.59633600;2022-07-23T08:52:44;8.57;;;7.70;;
1999;SDS011;1001;48.87406500;9.59633600;2022-07-23T08:55:11;7.33;;;6.43;;
1999;SDS011;1001;48.87406500;9.59633600;2022-07-23T08:57:38;8.10;;;7.33;;
1999;SDS011;1001;48.87406500;9.59633600;2022-07-23T09:00:06;7.67;;;6.97;;
1999;SDS011;1001;48.87406500;9.59633600;2022-07-23T09:02:38;7.67;;;6.83;;
1999;SDS011;1001;48.87406500;9.59633600;2022-07-23T09:05:06;7.77;;;7.03;;
1999;SDS011;1001;48.87406500;9.59633600;2022-07-23T09:07:35;8.30;;;7.60;;
1999;SDS011;1001;48.87406500;9.59633600;2022-07-23T09:10:06;8.20;;;7.37;;
1999;SDS011;1001;48.87406500;9.59633600;2022-07-23T09:12:34;8.10;;;7.40;;
1999;SDS011;1001;48.87406500;9.59633600;2022-07-23T09:15:06;8.60;;;7.77;;
1999;SDS011;1001;48.87406500;9.59633600;2022-07-23T09:17:38;9.00;;;7.90;;
1999;SDS011;1001;48.87406500;9.59633600;2022-07-23T09:20:09;9.13;;;8.33;;
1999;SDS011;1001;48.87406500;9.59633600;2022-07-23T09:22:39;10.03;;;7.57;;
1999;SDS011;1001;48.87406500;9.59633600;2022-07-23T09:25:11;10.27;;;8.30;;
1999;SDS011;1001;48.87406500;9.59633600;2022-07-23T09:27:50;7.63;;;6.80;;
1999;SDS011;1001;48.87406500;9.59633600;2022-07-23T09:30:19;7.70;;;7.00;;
1999;SDS011;1001;48.87406500;9.59633600;2022-07-23T09:33:03;8.00;;;7.30;;
1999;SDS011;1001;48.87406500;9.59633600;2022-07-23T09:35:44;7.63;;;6.93;;
1999;SDS011;1001;48.87406500;9.59633600;2022-07-23T09:38:14;7.43;;;6.73;;
1999;SDS011;1001;48.87406500;9.59633600;2022-07-23T09:40:45;6.90;;;6.30;;
1999;SDS011;1001;48.87406500;9.59633600;2022-07-23T09:43:25;8.30;;;7.50;;
1999;SDS011;1001;48.87406500;9.59633600;2022-07-23T09:45:53;6.17;;;5.57;;
1999;SDS011;1001;48.87406500;9.59633600;2022-07-23T09:48:44;7.43;;;6.73;;
1999;SDS011;1001;48.87406500;9.59633600;2022-07-23T09:51:11;6.57;;;6.07;;
1999;SDS011;1001;48.87406500;9.59633600;2022-07-23T09:53:39;7.57;;;6.93;;
1999;SDS011;1001;48.87406500;9.59633600;2022-07-23T09:56:06;7.93;;;7.30;;
1999;SDS011;1001;48.87406500;9.59633600;2022-07-23T09:58:34;7.53;;;7.00;;
1999;SDS011;1001;48.87406500;9.59633600;2022-07-23T10:01:10;7.13;;;6.50;;
1999;SDS011;1001;48.87406500;9.59633600;2022-07-23T10:03:39;7.43;;;6.83;;
1999;SDS011;1001;48.87406500;9.59633600;2022-07-23T10:06:07;7.57;;;5.43;;
1999;SDS011;1001;48.87406500;9.59633600;2022-07-23T10:08:35;6.07;;;5.57;;
1999;SDS011;1001;48.87406500;9.59633600;2022-07-23T10:11:08;6.60;;;6.00;;
1999;SDS011;1001;48.87406500;9.59633600;2022-07-23T10:13:40;8.37;;;6.00;;
1999;SDS011;1001;48.87406500;9.59633600;2022-07-23T10:16:20;6.73;;;5.80;;
1999;SDS011;1001;48.87406500;9.59633600;2022-07-23T10:18:47;6.40;;;5.90;;
1999;SDS011;1001;48.87406500;9.59633600;2022-07-23T10:21:16;7.10;;;6.40;;
1999;SDS011;1001;48.87406500;9.59633600;2022-07-23T10:23:51;6.97;;;5.57;;
1999;SDS011;1001;48.87406500;9.59633600;2022-07-23T10:26:30;10.23;;;5.87;;
1999;SDS011;1001;48.87406500;9.59633600;2022-07-23T10:29:11;5.70;;;5.30;;
1999;SDS011;1001;48.87406500;9.59633600;2022-07-23T10:31:50;6.60;;;6.10;;
1999;SDS011;1001;48.87406500;9.59633600;2022-07-23T10:34:21;6.57;;;5.97;;
1999;SDS011;1001;48.87406500;9.59633600;2022-07-23T10:36:56;6.40;;;5.90;;
1999;SDS011;1001;48.87406500;9.59633600;2022-07-23T10:39:28;6.00;;;5.10;;
1999;SDS011;1001;48.87406500;9.59633600;2022-07-23T10:42:09;6.50;;;5.80;;
1999;SDS011;1001;48.87406500;9.59633600;2022-07-23T10:44:40;6.20;;;5.70;;
1999;SDS011;1001;48.87406500;9.59633600;2022-07-23T10:47:09;5.90;;;5.40;;
1999;SDS011;1001;48.87406500;9.59633600;2022-07-23T10:49:52;6.90;;;6.30;;
1999;SDS011;1001;48.87406500;9.59633600;2022-07-23T10:52:20;6.77;;;6.23;;
1999;SDS011;1001;48.87406500;9.59633600;2022-07-23T10:54:50;5.77;;;5.27;;
1999;SDS011;1001;48.87406500;9.59633600;2022-07-23T10:57:19;6.60;;;6.00;;
1999;SDS011;1001;48.87406500;9.59633600;2022-07-23T11:02:49;6.40;;;5.80;;
1999;SDS011;1001;48.87406500;9.59633600;2022-07-23T11:05:18;6.27;;;5.77;;
1999;SDS011;1001;48.87406500;9.59633600;2022-07-23T11:10:43;5.70;;;5.30;;
1999;SDS011;1001;48.87406500;9.59633600;2022-07-23T11:16:16;6.73;;;6.03;;
1999;SDS011;1001;48.87406500;9.59633600;2022-07-23T11:24:27;5.10;;;4.70;;
1999;SDS011;1001;48.87406500;9.59633600;2022-07-23T11:27:02;5.33;;;4.93;;
1999;SDS011;1001;48.87406500;9.59633600;2022-07-23T11:29:45;6.00;;;5.40;;
1999;SDS011;1001;48.87406500;9.59633600;2022-07-23T11:32:23;5.43;;;4.93;;
1999;SDS011;1001;48.87406500;9.59633600;2022-07-23T11:34:54;5.60;;;5.20;;
1999;SDS011;1001;48.87406500;9.59633600;2022-07-23T11:40:11;5.73;;;5.23;;
1999;SDS011;1001;48.87406500;9.59633600;2022-07-23T11:42:51;5.80;;;5.20;;
1999;SDS011;1001;48.87406500;9.59633600;2022-07-23T11:45:23;6.10;;;5.60;;
1999;SDS011;1001;48.87406500;9.59633600;2022-07-23T11:47:51;5.67;;;5.17;;
1999;SDS011;1001;48.87406500;9.59633600;2022-07-23T11:50:18;5.77;;;5.27;;
1999;SDS011;1001;48.87406500;9.59633600;2022-07-23T11:52:45;6.03;;;5.47;;
1999;SDS011;1001;48.87406500;9.59633600;2022-07-23T11:55:12;6.50;;;5.93;;
1999;SDS011;1001;48.87406500;9.59633600;2022-07-23T11:57:43;6.70;;;6.20;;
1999;SDS011;1001;48.87406500;9.59633600;2022-07-23T12:00:11;5.90;;;5.40;;
1999;SDS011;1001;48.87406500;9.59633600;2022-07-23T12:02:40;6.07;;;5.50;;
1999;SDS011;1001;48.87406500;9.59633600;2022-07-23T12:05:10;6.37;;;5.77;;
1999;SDS011;1001;48.87406500;9.59633600;2022-07-23T12:07:39;6.17;;;5.60;;
1999;SDS011;1001;48.87406500;9.59633600;2022-07-23T12:10:12;6.43;;;5.83;;
1999;SDS011;1001;48.87406500;9.59633600;2022-07-23T12:12:43;5.80;;;5.30;;
1999;SDS011;1001;48.87406500;9.59633600;2022-07-23T12:15:13;5.57;;;5.17;;
1999;SDS011;1001;48.87406500;9.59633600;2022-07-23T12:17:46;6.90;;;5.90;;
1999;SDS011;1001;48.87406500;9.59633600;2022-07-23T12:20:15;5.90;;;5.50;;
1999;SDS011;1001;48.87406500;9.59633600;2022-07-23T12:22:58;6.20;;;5.70;;
1999;SDS011;1001;48.87406500;9.59633600;2022-07-23T12:25:26;6.00;;;5.50;;
1999;SDS011;1001;48.87406500;9.59633600;2022-07-23T12:27:58;6.07;;;5.57;;
1999;SDS011;1001;48.87406500;9.59633600;2022-07-23T12:30:29;4.80;;;4.40;;
1999;SDS011;1001;48.87406500;9.59633600;2022-07-23T12:32:57;6.50;;;5.20;;
1999;SDS011;1001;48.87406500;9.59633600;2022-07-23T12:35:30;6.37;;;5.87;;
1999;SDS011;1001;48.87406500;9.59633600;2022-07-23T12:38:02;7.23;;;6.40;;
1999;SDS011;1001;48.87406500;9.59633600;2022-07-23T12:40:30;6.53;;;5.90;;
1999;SDS011;1001;48.87406500;9.59633600;2022-07-23T12:42:59;5.30;;;4.90;;
1999;SDS011;1001;48.87406500;9.59633600;2022-07-23T12:45:28;6.20;;;5.60;;
1999;SDS011;1001;48.87406500;9.59633600;2022-07-23T12:48:07;5.30;;;4.90;;
1999;SDS011;1001;48.87406500;9.59633600;2022-07-23T12:50:39;6.53;;;6.03;;
1999;SDS011;1001;48.87406500;9.59633600;2022-07-23T12:53:10;6.70;;;6.10;;
1999;SDS011;1001;48.87406500;9.59633600;2022-07-23T12:55:39;6.53;;;5.90;;
1999;SDS011;1001;48.87406500;9.59633600;2022-07-23T12:58:07;6.37;;;5.77;;
1999;SDS011;1001;48.87406500;9.59633600;2022-07-23T13:00:52;6.33;;;5.73;;
1999;SDS011;1001;48.87406500;9.59633600;2022-07-23T13:03:24;5.80;;;5.30;;
1999;SDS011;1001;48.87406500;9.59633600;2022-07-23T13:05:53;6.20;;;5.60;;
1999;SDS011;1001;48.87406500;9.59633600;2022-07-23T13:08:21;6.33;;;5.80;;
1999;SDS011;1001;48.87406500;9.59633600;2022-07-23T13:10:48;6.70;;;6.20;;
1999;SDS011;1001;48.87406500;9.59633600;2022-07-23T13:13:16;7.10;;;6.43;;
1999;SDS011;1001;48.87406500;9.59633600;2022-07-23T13:15:43;6.13;;;5.63;;
1999;SDS011;1001;48.87406500;9.59633600;2022-07-23T13:18:09;6.87;;;6.13;;
1999;SDS011;1001;48.87406500;9.59633600;2022-07-23T13:20:36;7.00;;;6.50;;
1999;SDS011;1001;48.87406500;9.59633600;2022-07-23T13:23:04;6.57;;;6.07;;
1999;SDS011;1001;48.87406500;9.59633600;2022-07-23T13:25:32;5.80;;;5.20;;
1999;SDS011;1001;48.87406500;9.59633600;2022-07-23T13:28:00;6.27;;;5.80;;
1999;SDS011;1001;48.87406500;9.59633600;2022-07-23T13:30:27;7.17;;;6.57;;
1999;SDS011;1001;48.87406500;9.59633600;2022-07-23T13:32:53;7.20;;;6.60;;
1999;SDS011;1001;48.87406500;9.59633600;2022-07-23T13:35:21;6.33;;;5.83;;